Terminal Aerodrome Forecast
Issued by NWS Shreveport, LA

Home | Current Version | Previous Version | Text Only | Print | Product List | Glossary On
Versions: 1 2 3 4 5 6 7 8 9 10 11 12 13 14
342
FTUS44 KSHV 111138
TAFTXK
TAF
KTXK 111138Z 1112/1212 18011G17KT P6SM SCT025 OVC030
      TEMPO 1113/1115 OVC025
     FM111500 18013G20KT P6SM SCT020 OVC025
     FM111800 18014G22KT P6SM OVC013
     FM120000 19011KT P6SM OVC007
     FM120300 21007KT P6SM OVC007
     FM120700 25005KT 4SM BR OVC007=

USA.gov is the U.S. government's official web portal to all federal, state and local government web resources and services.